Flight Track Log - Related Links

Times and Time Zones

All times are in EDT time to prevent confusion due to time zone crossing. See the N2385C flight status page for this flight to view local times or setup timezone preferences in your user account.

Time Position Orientation Groundspeed Altitude Reporting Facility
EDT Latitude Longitude Course Direction KTS MPH feet Rate Location/Type
Tue 11:22:41 AM 36.4656 -83.5464 346° North 49 56 2,900  Level Indianapolis Center
Tue 11:23:42 AM 36.4961 -83.5542 348° North 102 117 3,400 439 Climbing Indianapolis Center
Tue 11:24:44 AM 36.5228 -83.5597 350° North 101 116 3,800 435 Climbing Indianapolis Center
Tue 11:25:46 AM 36.5497 -83.5678 346° North 99 114 4,300 484 Climbing Indianapolis Center
Tue 11:26:48 AM 36.5772 -83.5800 340° North 101 116 4,800 439 Climbing Indianapolis Center
Tue 11:27:49 AM 36.6033 -83.5900 343° North 100 115 5,200 439 Climbing Indianapolis Center
Tue 11:28:00 AM 36.5864 -83.6129 346° North  Level Estimated
Tue 11:28:51 AM 36.6369 -83.6003 346° North 102 117 5,700  Level Indianapolis Center
Tue 11:29:53 AM 36.6656 -83.6069 349° North 104 120 6,000 146 Climbing Indianapolis Center
Tue 11:30:54 AM 36.6986 -83.6192 343° North 114 131 6,000  Level Indianapolis Center
Tue 11:31:56 AM 36.7358 -83.6297 347° North 128 147 6,000  Level Indianapolis Center
Tue 11:32:58 AM 36.7717 -83.6397 347° North 131 151 6,000  Level Indianapolis Center
Tue 11:34:00 AM 36.8047 -83.6508 345° North 126 145 6,000  Level Indianapolis Center
Tue 11:35:02 AM 36.8442 -83.6619 347° North 125 144 6,000  Level Indianapolis Center
Tue 11:36:03 AM 36.8778 -83.6725 346° North 124 143 6,000  Level Indianapolis Center
Tue 11:37:05 AM 36.9119 -83.6844 344° North 125 144 6,000  Level Indianapolis Center
Tue 11:38:07 AM 36.9469 -83.6942 347° North 127 146 6,000  Level Indianapolis Center
Tue 11:39:08 AM 36.9808 -83.7056 345° North 127 146 6,000  Level Indianapolis Center
Tue 11:40:10 AM 37.0153 -83.7167 346° North 127 146 6,000  Level Indianapolis Center
Tue 11:41:12 AM 37.0486 -83.7294 343° North 126 145 6,000  Level Indianapolis Center
Tue 11:42:13 AM 37.0847 -83.7411 346° North 130 150 6,000  Level Indianapolis Center
Tue 11:43:15 AM 37.1269 -83.7553 345° North 133 153 6,000  Level Indianapolis Center
Tue 11:44:16 AM 37.1622 -83.7672 345° North 133 153 6,000  Level Indianapolis Center
Tue 11:45:18 AM 37.1986 -83.7803 344° North 134 154 6,000  Level Indianapolis Center
Tue 11:46:19 AM 37.2339 -83.7931 344° North 132 152 6,000  Level Indianapolis Center
Tue 11:47:21 AM 37.2697 -83.8072 343° North 134 154 6,000  Level Indianapolis Center
Tue 11:48:23 AM 37.3058 -83.8197 345° North 135 155 6,000  Level Indianapolis Center
Tue 11:49:24 AM 37.3411 -83.8317 345° North 132 152 6,000  Level Indianapolis Center
Tue 11:50:26 AM 37.3831 -83.8469 344° North 133 153 6,000  Level Indianapolis Center
Tue 11:51:27 AM 37.4194 -83.8586 346° North 134 154 6,000  Level Indianapolis Center
Tue 11:52:29 AM 37.4561 -83.8689 347° North 135 155 6,000  Level Indianapolis Center
Tue 11:53:30 AM 37.4931 -83.8803 346° North 135 155 6,000  Level Indianapolis Center
Tue 11:54:32 AM 37.5289 -83.8931 344° North 135 155 6,000  Level Indianapolis Center
Tue 11:55:33 AM 37.5656 -83.9044 346° North 135 155 6,000  Level Indianapolis Center
Tue 11:56:35 AM 37.6025 -83.9169 345° North 136 157 6,000 48 Level Indianapolis Center
Tue 11:57:37 AM 37.6389 -83.9286 346° North 136 157 6,100  Climbing Indianapolis Center
Tue 11:58:38 AM 37.6806 -83.9433 344° North 135 155 6,000 -98 Descending Indianapolis Center
Tue 11:59:40 AM 37.7178 -83.9556 345° North 135 155 5,900 -49 Descending Indianapolis Center
Tue 12:00:41 PM 37.7533 -83.9683 344° North 135 155 5,900 49 Level Indianapolis Center
Tue 12:01:43 PM 37.7894 -83.9825 343° North 135 155 6,000  Climbing Indianapolis Center
Tue 12:02:45 PM 37.8267 -83.9944 346° North 136 157 5,900 -49 Descending Indianapolis Center
Tue 12:03:46 PM 37.8617 -84.0072 344° North 133 153 5,900  Level Indianapolis Center
Tue 12:04:48 PM 37.8983 -84.0194 345° North 135 155 5,900  Level Indianapolis Center
Tue 12:05:50 PM 37.9397 -84.0347 344° North 133 153 5,900 49 Level Indianapolis Center
Tue 12:06:51 PM 37.9753 -84.0458 346° North 132 152 6,000  Climbing Indianapolis Center
Tue 12:07:53 PM 38.0111 -84.0578 345° North 133 153 5,900 -49 Descending Indianapolis Center
Tue 12:08:54 PM 38.0486 -84.0694 346° North 135 155 5,900  Level Indianapolis Center
Tue 12:09:56 PM 38.0850 -84.0811 346° North 135 155 5,900  Level Indianapolis Center
Tue 12:10:58 PM 38.1217 -84.0939 345° North 135 155 5,900  Level Indianapolis Center
Tue 12:11:59 PM 38.1578 -84.1058 345° North 135 155 5,900  Level Indianapolis Center
Tue 12:13:01 PM 38.1947 -84.1178 346° North 136 157 5,900  Level Indianapolis Center
Tue 12:14:03 PM 38.2367 -84.1317 345° North 134 154 5,900  Level Indianapolis Center
Tue 12:15:04 PM 38.2728 -84.1447 344° North 134 154 5,900 49 Level Indianapolis Center
Tue 12:16:06 PM 38.3086 -84.1569 345° North 133 153 6,000 48 Climbing Indianapolis Center
Tue 12:17:08 PM 38.3436 -84.1700 344° North 132 152 6,000 -49 Level Indianapolis Center
Tue 12:18:09 PM 38.3800 -84.1806 347° North 132 152 5,900  Descending Indianapolis Center
Tue 12:19:11 PM 38.4147 -84.1939 343° North 131 151 6,000 48 Climbing Indianapolis Center
Tue 12:20:13 PM 38.4544 -84.2092 343° North 129 148 6,000  Level Indianapolis Center
Tue 12:21:14 PM 38.4900 -84.2206 346° North 130 150 6,000 -146 Level Indianapolis Center
Tue 12:22:16 PM 38.5267 -84.2269 352° North 130 150 5,700 -387 Descending Indianapolis Center
Tue 12:23:18 PM 38.5669 -84.2306 356° North 136 157 5,200 -488 Descending Indianapolis Center
Tue 12:24:19 PM 38.6097 -84.2331 357° North 144 166 4,700 -488 Descending Indianapolis Center
Tue 12:25:21 PM 38.6500 -84.2364 356° North 146 168 4,200 -341 Descending Indianapolis Center
Tue 12:26:22 PM 38.6922 -84.2411 355° North 149 171 4,000 -98 Descending Indianapolis Center
Tue 12:27:24 PM 38.7322 -84.2442 357° North 147 169 4,000  Level Indianapolis Center
Tue 12:28:26 PM 38.7744 -84.2422 North 146 168 4,000  Level Indianapolis Center
Tue 12:29:27 PM 38.8167 -84.2447 357° North 147 169 4,000  Level Indianapolis Center
Tue 12:31:33 PM 38.9000 -84.2500 357° North 145 167 4,000  Level Cincinnati TRACON
Tue 12:32:33 PM 38.9500 -84.2500 360° North 146 168 4,000  Level Cincinnati TRACON
Tue 12:33:34 PM 38.9833 -84.2500 360° North 144 166 4,000 -143 Level Cincinnati TRACON
Tue 12:34:39 PM 39.0333 -84.2667 345° North 144 166 3,700 -240 Descending Cincinnati TRACON
Tue 12:35:39 PM 39.0667 -84.2667 360° North 144 166 3,500 -283 Descending Cincinnati TRACON
Tue 12:36:46 PM 39.1167 -84.2667 360° North 142 163 3,100 -226 Descending Cincinnati TRACON
Tue 12:37:52 PM 39.1500 -84.2833 339° North 147 169 3,000 -50 Descending Cincinnati TRACON
Tue 12:38:46 PM 39.1833 -84.3000 339° North 136 157 3,000  Level Cincinnati TRACON
Tue 12:39:52 PM 39.2167 -84.3333 322° Northwest 129 148 3,000  Level Cincinnati TRACON
Tue 12:40:52 PM 39.2333 -84.3667 303° West 131 151 3,000  Level Cincinnati TRACON
Tue 12:41:40 PM 39.2667 -84.4000 322° Northwest 133 153 3,000  Level Cincinnati TRACON
Tue 12:43:00 PM 39.2930 -84.4526 303° West  Level FlightAware Approximate
Tue 12:50:00 PM 39.3500 -84.5167 339° North  Level FlightAware Approximate
Tue 12:51:00 PM 39.3638 -84.5219 339° North  Level Estimated
Tue 12:52:00 PM 39.3638 -84.5219 339° North  Level Estimated

Login

Don't have an account? Register now (free) for customized features, flight alerts, and more!